createdAt,value
2023-05-05T00:01:15.821Z,102109.00
2023-05-05T00:03:42.809Z,102105.81
2023-05-05T00:06:09.773Z,102106.13
2023-05-05T00:08:36.406Z,102102.75
2023-05-05T00:11:03.091Z,102090.94
2023-05-05T00:13:29.715Z,102083.13
2023-05-05T00:15:57.393Z,102090.59
2023-05-05T00:18:24.087Z,102079.25
2023-05-05T00:20:50.957Z,102096.31
2023-05-05T00:23:17.823Z,102102.56
2023-05-05T00:25:44.544Z,102096.66
2023-05-05T00:28:11.516Z,102096.13
2023-05-05T00:30:39.648Z,102096.28
2023-05-05T00:33:06.664Z,102089.88
2023-05-05T00:35:33.550Z,102073.00
2023-05-05T00:38:00.216Z,102079.72
2023-05-05T00:40:26.949Z,102083.13
2023-05-05T00:42:53.931Z,102086.16
2023-05-05T00:45:20.644Z,102080.25
2023-05-05T00:47:58.849Z,102069.78
2023-05-05T00:50:31.192Z,102077.03
2023-05-05T00:53:01.639Z,102063.88
2023-05-05T00:55:32.019Z,102049.31
2023-05-05T00:58:00.328Z,102064.19
2023-05-05T01:00:28.485Z,102058.78
2023-05-05T01:02:55.584Z,102060.81
2023-05-05T01:05:24.769Z,102060.13
2023-05-05T01:08:19.524Z,102061.31
2023-05-05T01:10:51.878Z,102056.09
2023-05-05T01:13:36.684Z,102061.47
2023-05-05T01:16:19.399Z,102051.69
2023-05-05T01:18:56.526Z,102042.59
2023-05-05T01:21:38.617Z,102050.69
2023-05-05T01:24:23.674Z,102031.44
2023-05-05T01:27:27.827Z,102037.19
2023-05-05T01:30:01.073Z,102040.19
2023-05-05T01:32:34.290Z,102047.63
2023-05-05T01:35:17.093Z,102043.38
2023-05-05T01:37:50.721Z,102036.47
2023-05-05T01:40:24.983Z,102040.19
2023-05-05T01:42:54.294Z,102036.13
2023-05-05T01:45:24.908Z,102032.75
2023-05-05T01:47:53.770Z,102037.50
2023-05-05T01:50:21.560Z,102019.75
2023-05-05T01:52:50.348Z,102038.50
2023-05-05T01:55:19.232Z,102046.75
2023-05-05T01:57:47.416Z,102043.06
2023-05-05T02:00:16.879Z,102037.50
2023-05-05T02:02:46.874Z,102043.22
2023-05-05T02:05:15.658Z,102040.69
2023-05-05T02:07:44.126Z,102036.28
2023-05-05T02:10:13.661Z,102030.38
2023-05-05T02:12:42.712Z,102031.38
2023-05-05T02:15:11.298Z,102032.22
2023-05-05T02:17:42.305Z,102038.63
2023-05-05T02:20:12.207Z,101998.28
2023-05-05T02:22:38.892Z,102026.34
2023-05-05T02:25:06.480Z,102017.41
2023-05-05T02:27:35.789Z,102024.66
2023-05-05T02:30:11.201Z,102010.81
2023-05-05T02:32:44.702Z,102019.63
2023-05-05T02:35:15.643Z,102015.91
2023-05-05T02:37:48.321Z,102015.06
2023-05-05T02:40:19.991Z,102011.16
2023-05-05T02:42:48.021Z,102017.59
2023-05-05T02:45:17.465Z,102010.16
2023-05-05T02:47:44.152Z,102013.03
2023-05-05T02:50:11.401Z,102015.72
2023-05-05T02:52:38.298Z,102009.31
2023-05-05T02:55:05.921Z,102002.22
2023-05-05T02:57:48.575Z,102002.56
2023-05-05T03:00:24.278Z,101994.97
2023-05-05T03:03:32.513Z,102004.09
2023-05-05T03:06:02.608Z,102002.06
2023-05-05T03:08:40.174Z,101995.31
2023-05-05T03:11:13.662Z,102007.44
2023-05-05T03:13:44.207Z,101979.44
2023-05-05T03:16:12.344Z,102014.41
2023-05-05T03:18:42.361Z,102010.69
2023-05-05T03:21:09.589Z,102012.72
2023-05-05T03:23:36.616Z,102014.03
2023-05-05T03:26:03.397Z,102003.78
2023-05-05T03:28:30.085Z,101993.28
2023-05-05T03:30:57.362Z,101998.38
2023-05-05T03:33:24.049Z,102012.38
2023-05-05T03:35:50.889Z,102003.25
2023-05-05T03:38:17.893Z,102003.41
2023-05-05T03:40:45.033Z,102001.75
2023-05-05T03:43:11.961Z,102010.84
2023-05-05T03:45:38.792Z,102015.91
2023-05-05T03:48:07.013Z,102010.50
2023-05-05T03:50:34.106Z,102015.72
2023-05-05T03:53:00.983Z,101989.56
2023-05-05T03:55:27.722Z,102010.19
2023-05-05T03:57:54.414Z,102017.28
2023-05-05T04:00:21.079Z,101984.50
2023-05-05T04:02:47.837Z,102015.06
2023-05-05T04:05:14.564Z,102017.44
2023-05-05T04:07:41.169Z,102021.13
2023-05-05T04:10:08.760Z,102007.50
2023-05-05T04:12:35.544Z,102014.75
2023-05-05T04:15:02.252Z,102019.31
2023-05-05T04:17:29.001Z,102013.72
2023-05-05T04:19:55.814Z,102002.59
2023-05-05T04:22:22.399Z,102002.75
2023-05-05T04:24:50.098Z,102019.13
2023-05-05T04:27:16.735Z,102012.06
2023-05-05T04:29:43.393Z,102013.72
2023-05-05T04:32:09.995Z,101997.88
2023-05-05T04:34:36.662Z,102003.78
2023-05-05T04:37:03.751Z,102003.78
2023-05-05T04:39:30.480Z,101998.72
2023-05-05T04:41:57.272Z,101997.38
2023-05-05T04:44:23.915Z,101982.53
2023-05-05T04:46:50.684Z,102009.56
2023-05-05T04:49:17.582Z,102011.91
2023-05-05T04:51:44.232Z,102008.53
2023-05-05T04:54:10.946Z,101990.44
2023-05-05T04:56:37.815Z,102017.16
2023-05-05T04:59:04.503Z,102011.94
2023-05-05T05:01:31.814Z,102019.38
2023-05-05T05:03:58.897Z,102013.28
2023-05-05T05:06:25.855Z,102008.38
2023-05-05T05:08:53.536Z,102022.72
2023-05-05T05:11:20.247Z,102027.44
2023-05-05T05:13:47.189Z,102021.06
2023-05-05T05:16:14.292Z,102016.66
2023-05-05T05:18:41.081Z,102016.66
2023-05-05T05:21:07.803Z,102009.03
2023-05-05T05:23:34.829Z,102009.22
2023-05-05T05:26:01.606Z,102014.28
2023-05-05T05:28:28.435Z,102009.88
2023-05-05T05:30:55.104Z,102015.94
2023-05-05T05:33:21.844Z,102021.69
2023-05-05T05:35:48.537Z,102017.66
2023-05-05T05:38:15.385Z,102017.31
2023-05-05T05:40:42.368Z,102025.09
2023-05-05T05:43:09.084Z,102014.97
2023-05-05T05:45:35.905Z,102029.47
2023-05-05T05:48:04.162Z,102029.81
2023-05-05T05:50:33.682Z,102023.59
2023-05-05T05:53:01.553Z,102026.97
2023-05-05T05:55:28.187Z,102017.25
2023-05-05T05:57:55.962Z,101968.22
2023-05-05T06:00:23.193Z,102018.31
2023-05-05T06:02:51.660Z,102013.66
2023-05-05T06:05:18.320Z,102008.47
2023-05-05T06:07:45.040Z,102020.97
2023-05-05T06:10:26.527Z,102004.94
2023-05-05T06:12:54.501Z,102012.38
2023-05-05T06:15:21.352Z,102018.50
2023-05-05T06:17:49.168Z,102020.25
2023-05-05T06:20:16.081Z,101999.75
2023-05-05T06:22:43.027Z,102009.28
2023-05-05T06:25:10.188Z,102027.53
2023-05-05T06:27:38.797Z,102037.22
2023-05-05T06:30:07.638Z,102038.88
2023-05-05T06:32:34.625Z,102042.19
2023-05-05T06:35:02.599Z,102023.66
2023-05-05T06:37:29.223Z,102031.69
2023-05-05T06:39:56.893Z,102043.44
2023-05-05T06:42:23.585Z,102041.16
2023-05-05T06:44:50.379Z,101985.75
2023-05-05T06:47:17.258Z,102034.47
2023-05-05T06:49:46.320Z,102032.94
2023-05-05T06:52:13.020Z,102050.31
2023-05-05T06:54:39.573Z,102047.50
2023-05-05T06:57:06.575Z,102040.53
2023-05-05T06:59:33.190Z,102041.16
2023-05-05T07:02:00.051Z,102034.13
2023-05-05T07:04:26.946Z,102057.16
2023-05-05T07:06:55.291Z,102060.41
2023-05-05T07:09:22.317Z,102054.31
2023-05-05T07:11:49.302Z,102042.66
2023-05-05T07:14:16.374Z,102041.63
2023-05-05T07:16:43.132Z,102031.25
2023-05-05T07:19:10.804Z,102047.16
2023-05-05T07:21:37.984Z,102062.69
2023-05-05T07:24:06.630Z,102029.41
2023-05-05T07:26:33.651Z,102052.94
2023-05-05T07:29:00.586Z,102058.91
2023-05-05T07:31:27.830Z,102054.28
2023-05-05T07:33:55.095Z,102040.25
2023-05-05T07:36:22.569Z,102037.50
2023-05-05T07:38:49.704Z,102048.41
2023-05-05T07:41:16.836Z,102026.97
2023-05-05T07:43:44.653Z,102024.03
2023-05-05T07:46:12.565Z,102029.06
2023-05-05T07:48:41.848Z,102027.44
2023-05-05T07:51:09.530Z,102041.09
2023-05-05T07:53:36.907Z,102032.31
2023-05-05T07:56:04.438Z,102033.88
2023-05-05T07:58:31.404Z,102033.16
2023-05-05T08:00:58.076Z,102033.50
2023-05-05T08:03:25.139Z,102037.25
2023-05-05T08:05:54.242Z,102022.84
2023-05-05T08:08:25.158Z,102040.63
2023-05-05T08:10:53.182Z,102043.03
2023-05-05T08:13:20.500Z,102045.03
2023-05-05T08:15:47.324Z,102048.31
2023-05-05T08:18:15.545Z,102047.81
2023-05-05T08:20:43.253Z,102063.13
2023-05-05T08:23:09.966Z,102052.09
2023-05-05T08:25:36.880Z,102047.69
2023-05-05T08:28:03.625Z,102043.09
2023-05-05T08:30:30.750Z,102050.19
2023-05-05T08:32:59.218Z,102054.00
2023-05-05T08:35:26.152Z,102038.06
2023-05-05T08:37:52.866Z,102059.94
2023-05-05T08:40:21.028Z,102029.91
2023-05-05T08:42:51.296Z,102063.00
2023-05-05T08:45:22.133Z,102056.38
2023-05-05T08:47:50.988Z,102063.28
2023-05-05T08:50:25.490Z,102059.63
2023-05-05T08:52:58.316Z,102077.13
2023-05-05T08:55:27.650Z,102074.44
2023-05-05T08:57:58.399Z,102058.06
2023-05-05T09:00:27.248Z,102054.25
2023-05-05T09:02:56.921Z,102057.22
2023-05-05T09:05:24.078Z,102046.06
2023-05-05T09:07:51.320Z,102042.91
2023-05-05T09:10:19.188Z,102049.22
2023-05-05T09:12:48.667Z,102060.53
2023-05-05T09:15:18.492Z,102066.84
2023-05-05T09:17:45.199Z,102065.19
2023-05-05T09:20:13.672Z,102063.66
2023-05-05T09:22:46.217Z,102056.06
2023-05-05T09:25:15.334Z,102052.19
2023-05-05T09:27:46.859Z,102049.22
2023-05-05T09:30:24.504Z,102034.94
2023-05-05T09:32:53.366Z,102036.63
2023-05-05T09:35:24.115Z,102063.91
2023-05-05T09:37:54.205Z,102038.69
2023-05-05T09:40:23.787Z,102028.88
2023-05-05T09:43:02.368Z,102054.13
2023-05-05T09:45:29.305Z,102066.34
2023-05-05T09:47:59.839Z,102060.88
2023-05-05T09:50:30.512Z,102063.28
2023-05-05T09:53:03.259Z,102063.72
2023-05-05T09:55:33.530Z,102058.88
2023-05-05T09:58:29.938Z,102064.75
2023-05-05T10:00:59.384Z,102053.41
2023-05-05T10:03:31.514Z,102033.28
2023-05-05T10:05:59.744Z,102064.22
2023-05-05T10:08:26.590Z,102058.66
2023-05-05T10:11:02.892Z,102059.72
2023-05-05T10:13:30.307Z,102055.75
2023-05-05T10:15:59.618Z,102056.78
2023-05-05T10:18:28.729Z,102052.44
2023-05-05T10:21:03.553Z,102076.66
2023-05-05T10:23:41.614Z,102064.88
2023-05-05T10:26:13.578Z,102061.28
2023-05-05T10:28:56.407Z,102061.34
2023-05-05T10:31:45.808Z,102068.97
2023-05-05T10:34:36.977Z,102076.22
2023-05-05T10:37:04.973Z,102060.06
2023-05-05T10:39:31.908Z,102054.88
2023-05-05T10:42:04.878Z,102048.38
2023-05-05T10:44:34.327Z,102052.28
2023-05-05T10:47:03.008Z,102053.94
2023-05-05T10:50:18.001Z,102060.38
2023-05-05T10:52:51.637Z,102050.91
2023-05-05T10:55:35.986Z,102067.06
2023-05-05T10:58:02.710Z,102072.75
2023-05-05T11:00:38.302Z,102070.63
2023-05-05T11:03:17.138Z,102055.47
2023-05-05T11:06:02.599Z,102058.44
2023-05-05T11:08:31.020Z,102054.69
2023-05-05T11:10:58.064Z,102039.53
2023-05-05T11:13:25.737Z,102036.09
2023-05-05T11:15:54.331Z,102044.75
2023-05-05T11:18:43.268Z,102048.69
2023-05-05T11:21:17.989Z,102035.19
2023-05-05T11:23:46.554Z,102045.81
2023-05-05T11:26:14.509Z,102040.69
2023-05-05T11:29:02.941Z,102031.03
2023-05-05T11:31:33.398Z,102021.66
2023-05-05T11:34:30.386Z,102032.81
2023-05-05T11:37:03.261Z,102030.31
2023-05-05T11:39:42.713Z,102020.41
2023-05-05T11:42:25.698Z,102022.09
2023-05-05T11:44:53.955Z,101999.13
2023-05-05T11:47:21.550Z,101998.75
2023-05-05T11:49:49.659Z,102002.53
2023-05-05T11:52:16.774Z,102000.66
2023-05-05T11:54:50.713Z,102005.50
2023-05-05T11:57:21.585Z,102010.91
2023-05-05T11:59:54.122Z,101990.31
2023-05-05T12:02:24.345Z,102001.19
2023-05-05T12:04:51.546Z,101996.19
2023-05-05T12:07:20.196Z,102014.44
2023-05-05T12:09:48.582Z,101997.81
2023-05-05T12:12:16.505Z,101971.66
2023-05-05T12:14:52.580Z,102000.88
2023-05-05T12:17:21.171Z,101994.34
2023-05-05T12:19:51.645Z,102000.09
2023-05-05T12:22:24.642Z,101998.44
2023-05-05T12:24:59.948Z,101995.78
2023-05-05T12:27:27.906Z,101982.13
2023-05-05T12:29:56.156Z,101974.72
2023-05-05T12:32:24.508Z,101958.88
2023-05-05T12:34:56.367Z,101969.63
2023-05-05T12:37:27.577Z,101963.63
2023-05-05T12:39:55.127Z,101967.22
2023-05-05T12:42:23.066Z,101967.91
2023-05-05T12:44:50.034Z,101964.31
2023-05-05T12:47:44.120Z,101952.09
2023-05-05T12:50:11.843Z,101960.50
2023-05-05T12:52:46.212Z,101968.94
2023-05-05T12:55:13.262Z,101952.22
2023-05-05T12:58:00.469Z,101953.09
2023-05-05T13:00:30.106Z,101956.00
2023-05-05T13:02:57.015Z,101952.06
2023-05-05T13:05:34.120Z,101949.53
2023-05-05T13:08:00.758Z,101946.09
2023-05-05T13:10:28.383Z,101948.41
2023-05-05T13:12:56.817Z,101945.06
2023-05-05T13:15:24.579Z,101939.41
2023-05-05T13:17:51.229Z,101948.03
2023-05-05T13:20:18.241Z,101940.88
2023-05-05T13:22:44.831Z,101944.47
2023-05-05T13:25:11.801Z,101945.06
2023-05-05T13:27:38.667Z,101933.31
2023-05-05T13:30:06.320Z,101933.53
2023-05-05T13:32:33.121Z,101941.31
2023-05-05T13:35:02.949Z,101933.97
2023-05-05T13:37:29.613Z,101931.50
2023-05-05T13:39:59.351Z,101925.41
2023-05-05T13:42:26.065Z,101919.03
2023-05-05T13:44:53.644Z,101922.47
2023-05-05T13:47:23.091Z,101918.69
2023-05-05T13:49:51.197Z,101914.03
2023-05-05T13:52:18.789Z,101937.03
2023-05-05T13:54:45.411Z,101919.84
2023-05-05T13:57:13.383Z,101934.56
2023-05-05T13:59:40.033Z,101927.88
2023-05-05T14:02:08.277Z,101929.16
2023-05-05T14:04:35.093Z,101923.50
2023-05-05T14:07:03.067Z,101915.25
2023-05-05T14:09:29.834Z,101913.75
2023-05-05T14:11:59.547Z,101915.22
2023-05-05T14:14:26.131Z,101897.59
2023-05-05T14:16:52.904Z,101908.16
2023-05-05T14:19:20.596Z,101901.06
2023-05-05T14:21:47.278Z,101894.34
2023-05-05T14:24:14.520Z,101897.72
2023-05-05T14:26:41.442Z,101891.38
2023-05-05T14:29:08.358Z,101892.44
2023-05-05T14:31:36.312Z,101888.88
2023-05-05T14:34:03.293Z,101893.66
2023-05-05T14:36:30.259Z,101854.34
2023-05-05T14:38:59.419Z,101892.03
2023-05-05T14:41:26.471Z,101889.22
2023-05-05T14:43:53.246Z,101898.13
2023-05-05T14:46:20.508Z,101888.88
2023-05-05T14:48:47.460Z,101895.13
2023-05-05T14:51:17.345Z,101871.16
2023-05-05T14:53:48.938Z,101876.44
2023-05-05T14:56:16.106Z,101885.94
2023-05-05T14:58:52.175Z,101893.50
2023-05-05T15:01:21.259Z,101904.63
2023-05-05T15:03:53.134Z,101898.19
2023-05-05T15:06:20.880Z,101912.09
2023-05-05T15:08:49.591Z,101912.22
2023-05-05T15:11:20.912Z,101895.78
2023-05-05T15:13:48.151Z,101889.00
2023-05-05T15:16:15.144Z,101888.44
2023-05-05T15:18:42.779Z,101901.91
2023-05-05T15:21:12.420Z,101890.66
2023-05-05T15:23:39.890Z,101893.25
2023-05-05T15:26:07.048Z,101898.00
2023-05-05T15:28:35.065Z,101888.16
2023-05-05T15:31:05.996Z,101887.44
2023-05-05T15:33:34.232Z,101894.66
2023-05-05T15:36:03.162Z,101883.28
2023-05-05T15:38:31.589Z,101897.69
2023-05-05T15:40:58.635Z,101895.16
2023-05-05T15:43:25.555Z,101892.75
2023-05-05T15:45:54.655Z,101885.19
2023-05-05T15:48:21.344Z,101866.59
2023-05-05T15:50:52.158Z,101884.38
2023-05-05T15:53:26.398Z,101873.69
2023-05-05T15:55:53.455Z,101873.78
2023-05-05T15:58:20.552Z,101876.94
2023-05-05T16:00:47.384Z,101876.09
2023-05-05T16:03:14.797Z,101884.13
2023-05-05T16:05:42.005Z,101876.34
2023-05-05T16:08:10.545Z,101862.66
2023-05-05T16:10:38.040Z,101892.50
2023-05-05T16:13:05.274Z,101897.81
2023-05-05T16:15:32.161Z,101890.66
2023-05-05T16:17:59.115Z,101880.25
2023-05-05T16:20:26.201Z,101871.75
2023-05-05T16:22:53.074Z,101868.28
2023-05-05T16:25:20.394Z,101836.97
2023-05-05T16:27:47.559Z,101865.19
2023-05-05T16:30:15.735Z,101854.22
2023-05-05T16:32:45.522Z,101852.16
2023-05-05T16:35:12.774Z,101859.75
2023-05-05T16:37:39.527Z,101864.47
2023-05-05T16:40:07.291Z,101860.72
2023-05-05T16:42:34.355Z,101850.41
2023-05-05T16:45:01.149Z,101835.00
2023-05-05T16:47:28.265Z,101830.81
2023-05-05T16:49:56.726Z,101835.38
2023-05-05T16:52:23.555Z,101839.59
2023-05-05T16:54:57.903Z,101840.66
2023-05-05T16:57:24.893Z,101849.22
2023-05-05T16:59:55.033Z,101822.97
2023-05-05T17:02:22.068Z,101845.56
2023-05-05T17:04:49.186Z,101842.56
2023-05-05T17:07:16.121Z,101838.50
2023-05-05T17:09:43.200Z,101834.31
2023-05-05T17:12:10.128Z,101839.59
2023-05-05T17:14:36.866Z,101843.72
2023-05-05T17:17:03.810Z,101831.56
2023-05-05T17:19:30.880Z,101828.25
2023-05-05T17:21:58.471Z,101824.72
2023-05-05T17:24:26.380Z,101834.00
2023-05-05T17:26:53.155Z,101829.81
2023-05-05T17:29:23.048Z,101823.06
2023-05-05T17:31:55.129Z,101830.50
2023-05-05T17:34:22.125Z,101832.53
2023-05-05T17:36:49.405Z,101831.34
2023-05-05T17:39:16.126Z,101832.53
2023-05-05T17:41:42.964Z,101822.06
2023-05-05T17:44:09.579Z,101809.94
2023-05-05T17:46:39.389Z,101814.34
2023-05-05T17:49:06.477Z,101826.00
2023-05-05T17:51:34.526Z,101817.38
2023-05-05T17:54:01.608Z,101820.91
2023-05-05T17:56:28.271Z,101824.78
2023-05-05T17:58:56.138Z,101826.50
2023-05-05T18:01:23.908Z,101813.66
2023-05-05T18:03:50.865Z,101805.88
2023-05-05T18:06:18.567Z,101805.22
2023-05-05T18:08:45.466Z,101806.75
2023-05-05T18:11:12.240Z,101806.44
2023-05-05T18:13:39.767Z,101825.34
2023-05-05T18:16:06.891Z,101816.25
2023-05-05T18:18:33.691Z,101804.97
2023-05-05T18:21:03.060Z,101822.34
2023-05-05T18:23:29.719Z,101821.84
2023-05-05T18:25:56.435Z,101829.47
2023-05-05T18:28:23.740Z,101832.66
2023-05-05T18:30:50.752Z,101832.00
2023-05-05T18:33:17.411Z,101839.22
2023-05-05T18:35:44.101Z,101843.31
2023-05-05T18:38:14.865Z,101841.78
2023-05-05T18:40:41.592Z,101854.94
2023-05-05T18:43:09.792Z,101851.91
2023-05-05T18:45:36.953Z,101846.19
2023-05-05T18:48:04.856Z,101849.91
2023-05-05T18:50:33.277Z,101840.63
2023-05-05T18:53:00.275Z,101852.09
2023-05-05T18:55:26.827Z,101843.81
2023-05-05T18:57:53.595Z,101851.38
2023-05-05T19:00:21.031Z,101839.75
2023-05-05T19:02:47.865Z,101850.91
2023-05-05T19:05:15.010Z,101846.53
2023-05-05T19:07:42.885Z,101854.44
2023-05-05T19:10:10.193Z,101850.56
2023-05-05T19:12:36.965Z,101863.72
2023-05-05T19:15:03.798Z,101858.31
2023-05-05T19:17:30.470Z,101859.34
2023-05-05T19:19:57.097Z,101869.13
2023-05-05T19:22:24.044Z,101860.19
2023-05-05T19:24:50.664Z,101851.38
2023-05-05T19:27:17.467Z,101856.63
2023-05-05T19:29:44.657Z,101845.31
2023-05-05T19:32:11.379Z,101858.16
2023-05-05T19:34:38.098Z,101866.06
2023-05-05T19:37:04.824Z,101862.69
2023-05-05T19:39:31.689Z,101865.06
2023-05-05T19:42:00.410Z,101865.06
2023-05-05T19:44:27.076Z,101861.00
2023-05-05T19:46:53.876Z,101863.53
2023-05-05T19:49:21.452Z,101857.31
2023-05-05T19:51:50.554Z,101857.81
2023-05-05T19:54:18.137Z,101859.84
2023-05-05T19:56:45.327Z,101873.50
2023-05-05T19:59:12.110Z,101858.66
2023-05-05T20:01:38.820Z,101862.03
2023-05-05T20:04:06.101Z,101866.59
2023-05-05T20:06:34.670Z,101879.25
2023-05-05T20:09:03.106Z,101874.84
2023-05-05T20:11:31.246Z,101878.03
2023-05-05T20:13:59.141Z,101882.94
2023-05-05T20:16:26.462Z,101843.94
2023-05-05T20:18:56.174Z,101878.06
2023-05-05T20:21:22.867Z,101883.63
2023-05-05T20:23:54.553Z,101880.09
2023-05-05T20:26:24.469Z,101868.28
2023-05-05T20:28:53.417Z,101881.06
2023-05-05T20:31:21.658Z,101879.06
2023-05-05T20:33:48.544Z,101876.38
2023-05-05T20:36:18.300Z,101874.16
2023-05-05T20:38:45.315Z,101838.38
2023-05-05T20:41:13.149Z,101874.16
2023-05-05T20:43:39.816Z,101875.19
2023-05-05T20:46:13.085Z,101869.28
2023-05-05T20:48:42.763Z,101844.94
2023-05-05T20:51:11.448Z,101866.06
2023-05-05T20:53:38.252Z,101876.19
2023-05-05T20:56:08.624Z,101880.41
2023-05-05T20:58:35.855Z,101879.56
2023-05-05T21:01:02.580Z,101869.25
2023-05-05T21:03:29.323Z,101870.44
2023-05-05T21:05:55.964Z,101879.38
2023-05-05T21:08:22.556Z,101870.81
2023-05-05T21:10:49.440Z,101882.25
2023-05-05T21:13:16.314Z,101869.59
2023-05-05T21:15:43.161Z,101880.06
2023-05-05T21:18:09.938Z,101869.78
2023-05-05T21:20:36.709Z,101882.44
2023-05-05T21:23:03.960Z,101881.41
2023-05-05T21:25:30.881Z,101874.47
2023-05-05T21:27:59.516Z,101870.94
2023-05-05T21:30:27.472Z,101871.13
2023-05-05T21:32:54.177Z,101859.13
2023-05-05T21:35:21.129Z,101861.53
2023-05-05T21:37:48.841Z,101839.59
2023-05-05T21:40:16.281Z,101854.59
2023-05-05T21:42:43.332Z,101839.06
2023-05-05T21:45:12.840Z,101826.06
2023-05-05T21:47:39.674Z,101831.78
2023-05-05T21:50:07.097Z,101828.25
2023-05-05T21:52:34.073Z,101829.44
2023-05-05T21:55:00.891Z,101805.25
2023-05-05T21:57:27.647Z,101805.66
2023-05-05T21:59:54.410Z,101808.00
2023-05-05T22:02:21.072Z,101807.63
2023-05-05T22:04:51.183Z,101795.16
2023-05-05T22:07:17.799Z,101800.94
2023-05-05T22:09:45.553Z,101789.94
2023-05-05T22:12:12.946Z,101798.41
2023-05-05T22:14:40.635Z,101808.16
2023-05-05T22:17:07.318Z,101798.06
2023-05-05T22:19:34.004Z,101806.13
2023-05-05T22:22:02.722Z,101808.88
2023-05-05T22:24:29.947Z,101800.13
2023-05-05T22:26:57.393Z,101806.84
2023-05-05T22:29:25.372Z,101806.34
2023-05-05T22:31:52.031Z,101823.34
2023-05-05T22:34:20.499Z,101821.16
2023-05-05T22:36:47.359Z,101814.41
2023-05-05T22:39:14.076Z,101812.53
2023-05-05T22:41:41.134Z,101814.22
2023-05-05T22:44:07.776Z,101804.91
2023-05-05T22:46:34.437Z,101806.78
2023-05-05T22:49:01.569Z,101806.09
2023-05-05T22:51:28.228Z,101817.53
2023-05-05T22:53:55.170Z,101807.91
2023-05-05T22:56:21.690Z,101808.94
2023-05-05T22:58:48.665Z,101792.75
2023-05-05T23:01:15.401Z,101801.38
2023-05-05T23:03:42.104Z,101805.41
2023-05-05T23:06:09.343Z,101783.78
2023-05-05T23:08:35.923Z,101785.69
2023-05-05T23:11:02.903Z,101789.69
2023-05-05T23:13:29.607Z,101781.09
2023-05-05T23:15:56.500Z,101788.66
2023-05-05T23:18:23.236Z,101783.94
2023-05-05T23:20:49.928Z,101768.75
2023-05-05T23:23:16.598Z,101773.00
2023-05-05T23:25:43.224Z,101776.50
2023-05-05T23:28:10.102Z,101784.59
2023-05-05T23:30:36.710Z,101787.28
2023-05-05T23:33:03.960Z,101779.88
2023-05-05T23:35:32.183Z,101783.72
2023-05-05T23:37:58.736Z,101778.84
2023-05-05T23:40:25.540Z,101775.31
2023-05-05T23:42:54.190Z,101770.06
2023-05-05T23:45:20.881Z,101773.44
2023-05-05T23:47:47.523Z,101771.41
2023-05-05T23:50:14.221Z,101777.63
2023-05-05T23:52:41.977Z,101770.72
2023-05-05T23:55:09.187Z,101769.69
2023-05-05T23:57:36.937Z,101769.50
